PWSweather.com
Personal Weather Stations
Station Observations
ANTHEMNP
Anthem North Parkside, Anthem, AZ 85086

Anthem North ParksideAnthem, AZ 85086

Lat: 33.876464, Lon: -112.13861199999997

Elevation: 1930

Station Type: Davis Vantage Vue with Pro 2 console

http://www.azjerry.com/ANPW/wxindex.php

High Low Average
Temperature 61.1°F16.2°C 51.4°F10.8°C 55.4°F13.0°C
Dew Point 49.6°F9.8°C 25.5°F-3.6°C 40.4°F4.7°C
Winds 8.1 mph 13.0 kmh Calm Calm 1.0 mph S1.6 kmh S
Wind Gusts 10.4 mph16.7 kmh -- 2.0 mph3.2 kmh
Humidity 81% 33% 59%
Pressure 29.97 in1014.9 mb 29.81 in1009.5 mb -
Precipitation 0.03 in0.8 mm - -
Hour Temp Dew Point Humidity Winds Wind Gusts Pressure Precip Precip Rate Daily Precip Total
12:00 AM 53.4°F11.9°C 25.7°F-3.5°C 34% Calm Calm -- 29.81 in1009.5 mb - 0.00 in0.0 mm 0.00 in0.0 mm
12:05 AM 53.4°F11.9°C 25.7°F-3.5°C 34% Calm Calm -- 29.81 in1009.5 mb - 0.00 in0.0 mm 0.00 in0.0 mm
12:10 AM 53.4°F11.9°C 25.7°F-3.5°C 34% Calm Calm -- 29.81 in1009.5 mb - 0.00 in0.0 mm 0.00 in0.0 mm
12:15 AM 53.4°F11.9°C 25.7°F-3.5°C 34% Calm Calm -- 29.81 in1009.5 mb - 0.00 in0.0 mm 0.00 in0.0 mm
12:20 AM 53.2°F11.8°C 25.6°F-3.6°C 34% Calm Calm -- 29.81 in1009.5 mb - 0.00 in0.0 mm 0.00 in0.0 mm
12:25 AM 53.4°F11.9°C 25.7°F-3.5°C 34% Calm Calm -- 29.81 in1009.5 mb - 0.00 in0.0 mm 0.00 in0.0 mm
12:30 AM 53.6°F12.0°C 25.9°F-3.4°C 34% Calm Calm -- 29.81 in1009.5 mb - 0.00 in0.0 mm 0.00 in0.0 mm
12:35 AM 53.6°F12.0°C 25.9°F-3.4°C 34% Calm Calm -- 29.81 in1009.5 mb - 0.00 in0.0 mm 0.00 in0.0 mm
12:40 AM 53.6°F12.0°C 25.9°F-3.4°C 34% Calm Calm -- 29.81 in1009.5 mb - 0.00 in0.0 mm 0.00 in0.0 mm
12:45 AM 54.1°F12.3°C 25.6°F-3.6°C 33% Calm Calm -- 29.81 in1009.5 mb - 0.00 in0.0 mm 0.00 in0.0 mm
12:50 AM 54.3°F12.4°C 25.8°F-3.4°C 33% Calm Calm -- 29.81 in1009.5 mb - 0.00 in0.0 mm 0.00 in0.0 mm
12:55 AM 54.5°F12.5°C 26.0°F-3.3°C 33% Calm Calm -- 29.81 in1009.5 mb - 0.00 in0.0 mm 0.00 in0.0 mm
01:00 AM 54.9°F12.7°C 26.3°F-3.2°C 33% Calm Calm -- 29.81 in1009.5 mb - 0.00 in0.0 mm 0.00 in0.0 mm
01:05 AM 54.7°F12.6°C 26.1°F-3.3°C 33% Calm Calm -- 29.81 in1009.5 mb - 0.00 in0.0 mm 0.00 in0.0 mm
01:10 AM 54.7°F12.6°C 26.1°F-3.3°C 33% Calm Calm -- 29.81 in1009.5 mb - 0.00 in0.0 mm 0.00 in0.0 mm
01:15 AM 54.7°F12.6°C 26.1°F-3.3°C 33% Calm Calm -- 29.81 in1009.5 mb - 0.00 in0.0 mm 0.00 in0.0 mm
01:20 AM 54.7°F12.6°C 26.1°F-3.3°C 33% Calm Calm -- 29.81 in1009.5 mb - 0.00 in0.0 mm 0.00 in0.0 mm
01:25 AM 54.5°F12.5°C 26.0°F-3.3°C 33% Calm Calm -- 29.81 in1009.5 mb - 0.00 in0.0 mm 0.00 in0.0 mm
01:30 AM 54.7°F12.6°C 26.1°F-3.3°C 33% Calm Calm -- 29.81 in1009.5 mb - 0.00 in0.0 mm 0.00 in0.0 mm
01:35 AM 54.5°F12.5°C 25.9°F-3.4°C 33% Calm Calm -- 29.81 in1009.5 mb - 0.00 in0.0 mm 0.00 in0.0 mm
01:40 AM 54.0°F12.2°C 25.5°F-3.6°C 33% Calm Calm -- 29.81 in1009.5 mb - 0.00 in0.0 mm 0.00 in0.0 mm
01:45 AM 54.0°F12.2°C 25.5°F-3.6°C 33% Calm Calm -- 29.81 in1009.5 mb - 0.00 in0.0 mm 0.00 in0.0 mm
01:50 AM 54.1°F12.3°C 25.6°F-3.6°C 33% Calm Calm -- 29.81 in1009.5 mb - 0.00 in0.0 mm 0.00 in0.0 mm
01:55 AM 53.9°F12.2°C 25.5°F-3.6°C 33% Calm Calm -- 29.81 in1009.5 mb - 0.00 in0.0 mm 0.00 in0.0 mm
02:00 AM 53.7°F12.1°C 25.9°F-3.4°C 34% Calm Calm -- 29.81 in1009.5 mb - 0.00 in0.0 mm 0.00 in0.0 mm
02:05 AM 53.8°F12.1°C 26.1°F-3.3°C 34% Calm Calm -- 29.81 in1009.5 mb - 0.00 in0.0 mm 0.00 in0.0 mm
02:10 AM 54.0°F12.2°C 26.2°F-3.2°C 34% Calm Calm -- 29.81 in1009.5 mb - 0.00 in0.0 mm 0.00 in0.0 mm
02:15 AM 54.3°F12.4°C 25.8°F-3.4°C 33% Calm Calm -- 29.81 in1009.5 mb - 0.00 in0.0 mm 0.00 in0.0 mm
02:20 AM 54.5°F12.5°C 26.0°F-3.3°C 33% Calm Calm -- 29.81 in1009.5 mb - 0.00 in0.0 mm 0.00 in0.0 mm
02:25 AM 54.5°F12.5°C 26.0°F-3.3°C 33% Calm Calm -- 29.81 in1009.5 mb - 0.00 in0.0 mm 0.00 in0.0 mm
02:30 AM 54.7°F12.6°C 26.1°F-3.3°C 33% Calm Calm -- 29.81 in1009.5 mb - 0.00 in0.0 mm 0.00 in0.0 mm
02:35 AM 54.7°F12.6°C 26.1°F-3.3°C 33% Calm Calm -- 29.81 in1009.5 mb - 0.00 in0.0 mm 0.00 in0.0 mm
02:40 AM 54.7°F12.6°C 26.1°F-3.3°C 33% Calm Calm -- 29.81 in1009.5 mb - 0.00 in0.0 mm 0.00 in0.0 mm
02:45 AM 54.5°F12.5°C 26.0°F-3.3°C 33% Calm Calm -- 29.81 in1009.5 mb - 0.00 in0.0 mm 0.00 in0.0 mm
02:50 AM 54.3°F12.4°C 25.8°F-3.4°C 33% Calm Calm -- 29.81 in1009.5 mb - 0.00 in0.0 mm 0.00 in0.0 mm
02:55 AM 54.3°F12.4°C 25.8°F-3.4°C 33% Calm Calm -- 29.81 in1009.5 mb - 0.00 in0.0 mm 0.00 in0.0 mm
03:00 AM 54.1°F12.3°C 26.3°F-3.2°C 34% Calm Calm -- 29.81 in1009.5 mb - 0.00 in0.0 mm 0.00 in0.0 mm
03:05 AM 54.1°F12.3°C 26.3°F-3.2°C 34% Calm Calm -- 29.81 in1009.5 mb - 0.00 in0.0 mm 0.00 in0.0 mm
03:10 AM 54.1°F12.3°C 27.0°F-2.8°C 35% Calm Calm -- 29.81 in1009.5 mb - 0.00 in0.0 mm 0.00 in0.0 mm
03:15 AM 54.0°F12.2°C 26.9°F-2.8°C 35% Calm Calm -- 29.81 in1009.5 mb - 0.00 in0.0 mm 0.00 in0.0 mm
03:20 AM 53.8°F12.1°C 26.8°F-2.9°C 35% Calm Calm -- 29.81 in1009.5 mb - 0.00 in0.0 mm 0.00 in0.0 mm
03:25 AM 53.8°F12.1°C 27.4°F-2.6°C 36% Calm Calm -- 29.82 in1009.8 mb - 0.00 in0.0 mm 0.00 in0.0 mm
03:30 AM 53.8°F12.1°C 27.4°F-2.6°C 36% Calm Calm -- 29.82 in1009.8 mb - 0.00 in0.0 mm 0.00 in0.0 mm
03:35 AM 53.8°F12.1°C 27.4°F-2.6°C 36% Calm Calm -- 29.81 in1009.5 mb - 0.00 in0.0 mm 0.00 in0.0 mm
03:40 AM 53.8°F12.1°C 28.1°F-2.2°C 37% Calm Calm -- 29.81 in1009.5 mb - 0.00 in0.0 mm 0.00 in0.0 mm
03:45 AM 53.8°F12.1°C 28.1°F-2.2°C 37% Calm Calm -- 29.82 in1009.8 mb - 0.00 in0.0 mm 0.00 in0.0 mm
03:50 AM 53.6°F12.0°C 27.9°F-2.3°C 37% Calm Calm -- 29.82 in1009.8 mb - 0.00 in0.0 mm 0.00 in0.0 mm
03:55 AM 53.6°F12.0°C 27.9°F-2.3°C 37% Calm Calm -- 29.82 in1009.8 mb - 0.00 in0.0 mm 0.00 in0.0 mm
04:00 AM 53.8°F12.1°C 28.8°F-1.8°C 38% Calm Calm -- 29.82 in1009.8 mb - 0.00 in0.0 mm 0.00 in0.0 mm
04:05 AM 54.0°F12.2°C 28.9°F-1.7°C 38% Calm Calm -- 29.82 in1009.8 mb - 0.00 in0.0 mm 0.00 in0.0 mm
04:10 AM 54.0°F12.2°C 28.9°F-1.7°C 38% Calm Calm -- 29.82 in1009.8 mb - 0.00 in0.0 mm 0.00 in0.0 mm
04:15 AM 53.8°F12.1°C 28.8°F-1.8°C 38% Calm Calm -- 29.82 in1009.8 mb - 0.00 in0.0 mm 0.00 in0.0 mm
04:20 AM 53.8°F12.1°C 28.8°F-1.8°C 38% Calm Calm -- 29.82 in1009.8 mb - 0.00 in0.0 mm 0.00 in0.0 mm
04:25 AM 53.6°F12.0°C 29.2°F-1.6°C 39% Calm Calm -- 29.82 in1009.8 mb - 0.00 in0.0 mm 0.00 in0.0 mm
04:30 AM 53.4°F11.9°C 29.0°F-1.7°C 39% Calm Calm -- 29.82 in1009.8 mb - 0.00 in0.0 mm 0.00 in0.0 mm
04:35 AM 53.4°F11.9°C 29.0°F-1.7°C 39% Calm Calm -- 29.81 in1009.5 mb - 0.00 in0.0 mm 0.00 in0.0 mm
04:40 AM 53.2°F11.8°C 29.5°F-1.4°C 40% Calm Calm -- 29.81 in1009.5 mb - 0.00 in0.0 mm 0.00 in0.0 mm
04:45 AM 53.2°F11.8°C 29.5°F-1.4°C 40% Calm Calm -- 29.81 in1009.5 mb - 0.00 in0.0 mm 0.00 in0.0 mm
04:50 AM 53.2°F11.8°C 30.1°F-1.1°C 41% Calm Calm -- 29.81 in1009.5 mb - 0.00 in0.0 mm 0.00 in0.0 mm
04:55 AM 52.9°F11.6°C 29.8°F-1.2°C 41% Calm Calm -- 29.81 in1009.5 mb - 0.00 in0.0 mm 0.00 in0.0 mm
05:00 AM 52.9°F11.6°C 30.4°F-0.9°C 42% Calm Calm -- 29.82 in1009.8 mb - 0.00 in0.0 mm 0.00 in0.0 mm
05:05 AM 52.6°F11.4°C 30.8°F-0.7°C 43% Calm Calm -- 29.82 in1009.8 mb - 0.00 in0.0 mm 0.00 in0.0 mm
05:10 AM 52.3°F11.3°C 31.0°F-0.6°C 44% Calm Calm -- 29.81 in1009.5 mb - 0.00 in0.0 mm 0.00 in0.0 mm
05:15 AM 52.2°F11.2°C 31.5°F-0.3°C 45% Calm Calm -- 29.81 in1009.5 mb - 0.00 in0.0 mm 0.00 in0.0 mm
05:20 AM 52.0°F11.1°C 31.3°F-0.4°C 45% Calm Calm -- 29.81 in1009.5 mb - 0.00 in0.0 mm 0.00 in0.0 mm
05:25 AM 51.6°F10.9°C 31.5°F-0.3°C 46% Calm Calm -- 29.82 in1009.8 mb - 0.00 in0.0 mm 0.00 in0.0 mm
05:30 AM 51.4°F10.8°C 32.3°F0.2°C 48% Calm Calm -- 29.82 in1009.8 mb - 0.00 in0.0 mm 0.00 in0.0 mm
05:35 AM 51.4°F10.8°C 32.9°F0.5°C 49% Calm Calm -- 29.82 in1009.8 mb - 0.00 in0.0 mm 0.00 in0.0 mm
05:40 AM 51.6°F10.9°C 33.0°F0.6°C 49% Calm Calm -- 29.82 in1009.8 mb - 0.00 in0.0 mm 0.00 in0.0 mm
05:45 AM 51.6°F10.9°C 34.0°F1.1°C 51% Calm Calm -- 29.83 in1010.2 mb - 0.00 in0.0 mm 0.00 in0.0 mm
05:50 AM 51.8°F11.0°C 34.2°F1.2°C 51% Calm Calm -- 29.83 in1010.2 mb - 0.00 in0.0 mm 0.00 in0.0 mm
05:55 AM 51.8°F11.0°C 34.2°F1.2°C 51% Calm Calm -- 29.83 in1010.2 mb - 0.00 in0.0 mm 0.00 in0.0 mm
06:00 AM 51.8°F11.0°C 34.7°F1.5°C 52% Calm Calm -- 29.83 in1010.2 mb - 0.00 in0.0 mm 0.00 in0.0 mm
06:05 AM 52.0°F11.1°C 35.4°F1.9°C 53% Calm Calm -- 29.83 in1010.2 mb - 0.00 in0.0 mm 0.00 in0.0 mm
06:10 AM 52.2°F11.2°C 35.6°F2.0°C 53% Calm Calm -- 29.83 in1010.2 mb - 0.00 in0.0 mm 0.00 in0.0 mm
06:15 AM 52.3°F11.3°C 35.7°F2.1°C 53% Calm Calm -- 29.83 in1010.2 mb - 0.00 in0.0 mm 0.00 in0.0 mm
06:20 AM 52.4°F11.3°C 35.7°F2.1°C 53% Calm Calm -- 29.83 in1010.2 mb - 0.00 in0.0 mm 0.00 in0.0 mm
06:25 AM 52.5°F11.4°C 35.8°F2.1°C 53% Calm Calm -- 29.83 in1010.2 mb - 0.00 in0.0 mm 0.00 in0.0 mm
06:30 AM 52.5°F11.4°C 35.8°F2.1°C 53% Calm Calm -- 29.83 in1010.2 mb - 0.00 in0.0 mm 0.00 in0.0 mm
06:35 AM 52.5°F11.4°C 35.8°F2.1°C 53% Calm Calm -- 29.84 in1010.5 mb - 0.00 in0.0 mm 0.00 in0.0 mm
06:40 AM 52.5°F11.4°C 36.3°F2.4°C 54% Calm Calm -- 29.84 in1010.5 mb - 0.00 in0.0 mm 0.00 in0.0 mm
06:45 AM 52.7°F11.5°C 36.5°F2.5°C 54% Calm Calm -- 29.84 in1010.5 mb - 0.00 in0.0 mm 0.00 in0.0 mm
06:50 AM 52.7°F11.5°C 37.0°F2.8°C 55% Calm Calm -- 29.84 in1010.5 mb - 0.00 in0.0 mm 0.00 in0.0 mm
06:55 AM 52.7°F11.5°C 37.4°F3.0°C 56% Calm Calm -- 29.84 in1010.5 mb - 0.00 in0.0 mm 0.00 in0.0 mm
07:00 AM 52.7°F11.5°C 37.9°F3.3°C 57% Calm Calm -- 29.84 in1010.5 mb - 0.00 in0.0 mm 0.00 in0.0 mm
07:05 AM 52.7°F11.5°C 37.9°F3.3°C 57% Calm Calm -- 29.84 in1010.5 mb - 0.00 in0.0 mm 0.00 in0.0 mm
07:10 AM 52.9°F11.6°C 38.1°F3.4°C 57% Calm Calm -- 29.85 in1010.8 mb - 0.00 in0.0 mm 0.00 in0.0 mm
07:15 AM 52.9°F11.6°C 38.5°F3.6°C 58% Calm Calm -- 29.85 in1010.8 mb - 0.00 in0.0 mm 0.00 in0.0 mm
07:20 AM 52.9°F11.6°C 39.0°F3.9°C 59% Calm Calm -- 29.85 in1010.8 mb - 0.00 in0.0 mm 0.00 in0.0 mm
07:25 AM 53.1°F11.7°C 39.6°F4.2°C 60% Calm Calm -- 29.85 in1010.8 mb - 0.00 in0.0 mm 0.00 in0.0 mm
07:30 AM 53.1°F11.7°C 39.6°F4.2°C 60% Calm Calm -- 29.85 in1010.8 mb - 0.00 in0.0 mm 0.00 in0.0 mm
07:35 AM 53.2°F11.8°C 40.1°F4.5°C 61% Calm Calm -- 29.85 in1010.8 mb - 0.00 in0.0 mm 0.00 in0.0 mm
07:40 AM 53.4°F11.9°C 41.1°F5.1°C 63% Calm Calm -- 29.85 in1010.8 mb - 0.00 in0.0 mm 0.00 in0.0 mm
07:45 AM 53.6°F12.0°C 40.9°F4.9°C 62% Calm Calm -- 29.85 in1010.8 mb - 0.00 in0.0 mm 0.00 in0.0 mm
07:50 AM 53.8°F12.1°C 41.1°F5.1°C 62% Calm Calm -- 29.85 in1010.8 mb - 0.00 in0.0 mm 0.00 in0.0 mm
07:55 AM 53.8°F12.1°C 41.1°F5.1°C 62% Calm Calm -- 29.85 in1010.8 mb - 0.00 in0.0 mm 0.00 in0.0 mm
08:00 AM 54.0°F12.2°C 41.3°F5.2°C 62% Calm Calm -- 29.85 in1010.8 mb - 0.00 in0.0 mm 0.00 in0.0 mm
08:05 AM 54.1°F12.3°C 41.4°F5.2°C 62% Calm Calm -- 29.85 in1010.8 mb - 0.00 in0.0 mm 0.00 in0.0 mm
08:10 AM 54.1°F12.3°C 41.4°F5.2°C 62% Calm Calm -- 29.85 in1010.8 mb - 0.00 in0.0 mm 0.00 in0.0 mm
08:15 AM 54.3°F12.4°C 41.6°F5.3°C 62% Calm Calm -- 29.85 in1010.8 mb - 0.00 in0.0 mm 0.00 in0.0 mm
08:20 AM 54.4°F12.4°C 40.8°F4.9°C 60% Calm Calm -- 29.85 in1010.8 mb - 0.00 in0.0 mm 0.00 in0.0 mm
08:25 AM 54.7°F12.6°C 41.1°F5.1°C 60% Calm Calm -- 29.86 in1011.2 mb - 0.00 in0.0 mm 0.00 in0.0 mm
08:30 AM 54.7°F12.6°C 41.1°F5.1°C 60% Calm Calm -- 29.86 in1011.2 mb - 0.00 in0.0 mm 0.00 in0.0 mm
08:35 AM 54.9°F12.7°C 40.8°F4.9°C 59% Calm Calm -- 29.87 in1011.5 mb - 0.00 in0.0 mm 0.00 in0.0 mm
08:40 AM 55.0°F12.8°C 40.5°F4.7°C 58% Calm Calm -- 29.87 in1011.5 mb - 0.00 in0.0 mm 0.00 in0.0 mm
08:45 AM 55.0°F12.8°C 40.5°F4.7°C 58% Calm Calm -- 29.87 in1011.5 mb - 0.00 in0.0 mm 0.00 in0.0 mm
08:50 AM 55.2°F12.9°C 40.7°F4.8°C 58% Calm Calm -- 29.86 in1011.2 mb - 0.00 in0.0 mm 0.00 in0.0 mm
08:55 AM 55.2°F12.9°C 40.7°F4.8°C 58% Calm Calm -- 29.86 in1011.2 mb - 0.00 in0.0 mm 0.00 in0.0 mm
09:00 AM 55.2°F12.9°C 40.7°F4.8°C 58% Calm Calm -- 29.87 in1011.5 mb - 0.00 in0.0 mm 0.00 in0.0 mm
09:05 AM 55.4°F13.0°C 40.9°F4.9°C 58% Calm Calm -- 29.87 in1011.5 mb - 0.00 in0.0 mm 0.00 in0.0 mm
09:10 AM 55.6°F13.1°C 41.0°F5.0°C 58% Calm Calm -- 29.87 in1011.5 mb - 0.00 in0.0 mm 0.00 in0.0 mm
09:15 AM 55.8°F13.2°C 41.2°F5.1°C 58% 2.3 mph SSE3.7 kmh SSE 5.8 mph9.3 kmh 29.87 in1011.5 mb - 0.00 in0.0 mm 0.00 in0.0 mm
09:20 AM 55.8°F13.2°C 41.3°F5.2°C 58% Calm Calm -- 29.87 in1011.5 mb - 0.00 in0.0 mm 0.00 in0.0 mm
09:25 AM 56.3°F13.5°C 41.2°F5.1°C 57% Calm Calm -- 29.87 in1011.5 mb - 0.00 in0.0 mm 0.00 in0.0 mm
09:30 AM 56.7°F13.7°C 41.6°F5.3°C 57% Calm Calm -- 29.87 in1011.5 mb - 0.00 in0.0 mm 0.00 in0.0 mm
09:35 AM 57.0°F13.9°C 41.4°F5.2°C 56% Calm Calm -- 29.87 in1011.5 mb - 0.00 in0.0 mm 0.00 in0.0 mm
09:40 AM 57.0°F13.9°C 41.4°F5.2°C 56% Calm Calm -- 29.87 in1011.5 mb - 0.00 in0.0 mm 0.00 in0.0 mm
09:45 AM 57.6°F14.2°C 41.5°F5.3°C 55% Calm Calm -- 29.87 in1011.5 mb - 0.00 in0.0 mm 0.00 in0.0 mm
09:50 AM 57.6°F14.2°C 41.5°F5.3°C 55% Calm Calm -- 29.87 in1011.5 mb - 0.00 in0.0 mm 0.00 in0.0 mm
09:55 AM 57.6°F14.2°C 41.5°F5.3°C 55% Calm Calm -- 29.87 in1011.5 mb - 0.00 in0.0 mm 0.00 in0.0 mm
10:00 AM 57.7°F14.3°C 41.6°F5.3°C 55% Calm Calm -- 29.88 in1011.9 mb - 0.00 in0.0 mm 0.00 in0.0 mm
10:05 AM 58.1°F14.5°C 42.0°F5.6°C 55% Calm Calm -- 29.88 in1011.9 mb - 0.00 in0.0 mm 0.00 in0.0 mm
10:10 AM 58.3°F14.6°C 42.2°F5.7°C 55% Calm Calm -- 29.88 in1011.9 mb - 0.00 in0.0 mm 0.00 in0.0 mm
10:15 AM 58.5°F14.7°C 42.4°F5.8°C 55% Calm Calm -- 29.88 in1011.9 mb - 0.00 in0.0 mm 0.00 in0.0 mm
10:20 AM 58.6°F14.8°C 42.5°F5.8°C 55% 1.2 mph S1.9 kmh S -- 29.88 in1011.9 mb - 0.00 in0.0 mm 0.00 in0.0 mm
10:25 AM 58.8°F14.9°C 42.7°F5.9°C 55% 2.3 mph S3.7 kmh S 4.6 mph7.4 kmh 29.88 in1011.9 mb - 0.00 in0.0 mm 0.00 in0.0 mm
10:30 AM 58.6°F14.8°C 42.5°F5.8°C 55% Calm Calm -- 29.88 in1011.9 mb - 0.00 in0.0 mm 0.00 in0.0 mm
10:35 AM 58.8°F14.9°C 42.6°F5.9°C 55% Calm Calm -- 29.88 in1011.9 mb - 0.00 in0.0 mm 0.00 in0.0 mm
10:40 AM 58.6°F14.8°C 42.5°F5.8°C 55% Calm Calm -- 29.88 in1011.9 mb - 0.00 in0.0 mm 0.00 in0.0 mm
10:45 AM 58.8°F14.9°C 42.7°F5.9°C 55% Calm Calm -- 29.88 in1011.9 mb - 0.00 in0.0 mm 0.00 in0.0 mm
10:50 AM 58.8°F14.9°C 42.7°F5.9°C 55% 1.2 mph ESE1.9 kmh ESE 2.3 mph3.7 kmh 29.88 in1011.9 mb - 0.00 in0.0 mm 0.00 in0.0 mm
10:55 AM 58.5°F14.7°C 42.4°F5.8°C 55% Calm Calm -- 29.88 in1011.9 mb - 0.00 in0.0 mm 0.00 in0.0 mm
11:00 AM 58.3°F14.6°C 42.2°F5.7°C 55% 4.6 mph S7.4 kmh S 6.9 mph11.1 kmh 29.88 in1011.9 mb - 0.00 in0.0 mm 0.00 in0.0 mm
11:05 AM 58.3°F14.6°C 42.2°F5.7°C 55% 4.6 mph S7.4 kmh S 5.8 mph9.3 kmh 29.88 in1011.9 mb - 0.00 in0.0 mm 0.00 in0.0 mm
11:10 AM 58.2°F14.6°C 42.6°F5.9°C 56% 3.5 mph SSW5.6 kmh SSW 4.6 mph7.4 kmh 29.88 in1011.9 mb - 0.00 in0.0 mm 0.00 in0.0 mm
11:15 AM 57.6°F14.2°C 43.8°F6.6°C 60% 2.3 mph SE3.7 kmh SE 5.8 mph9.3 kmh 29.88 in1011.9 mb - 0.00 in0.0 mm 0.00 in0.0 mm
11:20 AM 57.6°F14.2°C 42.9°F6.1°C 58% 2.3 mph S3.7 kmh S 3.5 mph5.6 kmh 29.88 in1011.9 mb - 0.00 in0.0 mm 0.00 in0.0 mm
11:25 AM 57.7°F14.3°C 42.6°F5.9°C 57% 6.9 mph SSE11.1 kmh SSE 8.1 mph13.0 kmh 29.88 in1011.9 mb - 0.00 in0.0 mm 0.00 in0.0 mm
11:30 AM 58.1°F14.5°C 42.0°F5.6°C 55% 5.8 mph SSE9.3 kmh SSE 6.9 mph11.1 kmh 29.88 in1011.9 mb - 0.00 in0.0 mm 0.00 in0.0 mm
11:35 AM 58.5°F14.7°C 41.9°F5.5°C 54% 5.8 mph SSE9.3 kmh SSE 6.9 mph11.1 kmh 29.88 in1011.9 mb - 0.00 in0.0 mm 0.00 in0.0 mm
11:40 AM 58.5°F14.7°C 41.9°F5.5°C 54% 6.9 mph S11.1 kmh S 8.1 mph13.0 kmh 29.88 in1011.9 mb - 0.00 in0.0 mm 0.00 in0.0 mm
11:45 AM 58.5°F14.7°C 41.9°F5.5°C 54% 6.9 mph SE11.1 kmh SE 10.4 mph16.7 kmh 29.88 in1011.9 mb - 0.00 in0.0 mm 0.00 in0.0 mm
11:50 AM 58.3°F14.6°C 42.2°F5.7°C 55% 6.9 mph S11.1 kmh S 9.2 mph14.8 kmh 29.88 in1011.9 mb - 0.00 in0.0 mm 0.00 in0.0 mm
11:55 AM 58.3°F14.6°C 42.2°F5.7°C 55% 5.8 mph SSE9.3 kmh SSE 8.1 mph13.0 kmh 29.88 in1011.9 mb - 0.00 in0.0 mm 0.00 in0.0 mm
12:00 PM 58.5°F14.7°C 42.4°F5.8°C 55% 1.2 mph S1.9 kmh S 5.8 mph9.3 kmh 29.87 in1011.5 mb - 0.00 in0.0 mm 0.00 in0.0 mm
12:05 PM 58.5°F14.7°C 42.4°F5.8°C 55% 5.8 mph S9.3 kmh S 6.9 mph11.1 kmh 29.87 in1011.5 mb - 0.00 in0.0 mm 0.00 in0.0 mm
12:10 PM 58.3°F14.6°C 42.7°F5.9°C 56% 6.9 mph S11.1 kmh S 6.9 mph11.1 kmh 29.88 in1011.9 mb - 0.00 in0.0 mm 0.00 in0.0 mm
12:15 PM 58.0°F14.4°C 43.3°F6.3°C 58% 8.1 mph S13.0 kmh S 9.2 mph14.8 kmh 29.88 in1011.9 mb - 0.00 in0.0 mm 0.00 in0.0 mm
12:20 PM 57.2°F14.0°C 44.3°F6.8°C 62% 8.1 mph SSW13.0 kmh SSW 8.1 mph13.0 kmh 29.88 in1011.9 mb - 0.00 in0.0 mm 0.00 in0.0 mm
12:25 PM 56.5°F13.6°C 45.3°F7.4°C 66% 4.6 mph SSE7.4 kmh SSE 9.2 mph14.8 kmh 29.88 in1011.9 mb - 0.00 in0.0 mm 0.00 in0.0 mm
12:30 PM 55.9°F13.3°C 45.8°F7.7°C 69% 4.6 mph S7.4 kmh S 10.4 mph16.7 kmh 29.88 in1011.9 mb - 0.00 in0.0 mm 0.00 in0.0 mm
12:35 PM 55.0°F12.8°C 46.9°F8.3°C 74% 4.6 mph WSW7.4 kmh WSW 6.9 mph11.1 kmh 29.89 in1012.2 mb - 0.00 in0.0 mm 0.00 in0.0 mm
12:40 PM 54.4°F12.4°C 47.0°F8.3°C 76% 5.8 mph S9.3 kmh S 8.1 mph13.0 kmh 29.89 in1012.2 mb - 0.00 in0.0 mm 0.00 in0.0 mm
12:45 PM 54.0°F12.2°C 47.3°F8.5°C 78% 2.3 mph SSE3.7 kmh SSE 6.9 mph11.1 kmh 29.89 in1012.2 mb - 0.00 in0.0 mm 0.00 in0.0 mm
12:50 PM 54.0°F12.2°C 47.3°F8.5°C 78% 2.3 mph SSW3.7 kmh SSW 4.6 mph7.4 kmh 29.88 in1011.9 mb - 0.00 in0.0 mm 0.00 in0.0 mm
12:55 PM 54.0°F12.2°C 47.3°F8.5°C 78% 3.5 mph SW5.6 kmh SW 4.6 mph7.4 kmh 29.88 in1011.9 mb - 0.00 in0.0 mm 0.00 in0.0 mm
01:00 PM 54.1°F12.3°C 47.0°F8.3°C 77% Calm Calm -- 29.88 in1011.9 mb - 0.00 in0.0 mm 0.00 in0.0 mm
01:05 PM 54.5°F12.5°C 47.4°F8.6°C 77% Calm Calm -- 29.88 in1011.9 mb - 0.00 in0.0 mm 0.00 in0.0 mm
01:10 PM 55.0°F12.8°C 47.9°F8.8°C 77% Calm Calm -- 29.87 in1011.5 mb - 0.00 in0.0 mm 0.00 in0.0 mm
01:15 PM 55.4°F13.0°C 47.6°F8.7°C 75% Calm Calm -- 29.87 in1011.5 mb - 0.00 in0.0 mm 0.00 in0.0 mm
01:20 PM 55.7°F13.2°C 46.8°F8.2°C 72% 1.2 mph SSE1.9 kmh SSE 1.2 mph1.9 kmh 29.87 in1011.5 mb - 0.00 in0.0 mm 0.00 in0.0 mm
01:25 PM 55.9°F13.3°C 46.6°F8.1°C 71% 3.5 mph S5.6 kmh S 3.5 mph5.6 kmh 29.86 in1011.2 mb - 0.00 in0.0 mm 0.00 in0.0 mm
01:30 PM 56.1°F13.4°C 47.2°F8.4°C 72% Calm Calm -- 29.86 in1011.2 mb - 0.00 in0.0 mm 0.00 in0.0 mm
01:35 PM 56.1°F13.4°C 46.4°F8.0°C 70% Calm Calm -- 29.86 in1011.2 mb - 0.00 in0.0 mm 0.00 in0.0 mm
01:40 PM 55.9°F13.3°C 46.3°F7.9°C 70% Calm Calm -- 29.86 in1011.2 mb - 0.00 in0.0 mm 0.00 in0.0 mm
01:45 PM 55.9°F13.3°C 45.9°F7.7°C 69% Calm Calm -- 29.86 in1011.2 mb - 0.00 in0.0 mm 0.00 in0.0 mm
01:50 PM 55.9°F13.3°C 46.3°F7.9°C 70% Calm Calm -- 29.86 in1011.2 mb - 0.00 in0.0 mm 0.00 in0.0 mm
01:55 PM 56.3°F13.5°C 46.2°F7.9°C 69% Calm Calm -- 29.86 in1011.2 mb - 0.00 in0.0 mm 0.00 in0.0 mm
02:00 PM 56.5°F13.6°C 46.4°F8.0°C 69% Calm Calm -- 29.85 in1010.8 mb - 0.00 in0.0 mm 0.00 in0.0 mm
02:05 PM 56.9°F13.8°C 46.0°F7.8°C 67% Calm Calm 4.6 mph7.4 kmh 29.85 in1010.8 mb - 0.00 in0.0 mm 0.00 in0.0 mm
02:10 PM 57.0°F13.9°C 45.3°F7.4°C 65% Calm Calm -- 29.85 in1010.8 mb - 0.00 in0.0 mm 0.00 in0.0 mm
02:15 PM 57.2°F14.0°C 45.9°F7.7°C 66% Calm Calm -- 29.85 in1010.8 mb - 0.00 in0.0 mm 0.00 in0.0 mm
02:20 PM 57.2°F14.0°C 46.3°F7.9°C 67% Calm Calm -- 29.85 in1010.8 mb - 0.00 in0.0 mm 0.00 in0.0 mm
02:25 PM 57.1°F13.9°C 47.4°F8.6°C 70% Calm Calm -- 29.85 in1010.8 mb - 0.01 in0.3 mm 0.01 in0.3 mm
02:30 PM 56.7°F13.7°C 48.1°F8.9°C 73% Calm Calm -- 29.85 in1010.8 mb - 0.00 in0.0 mm 0.01 in0.3 mm
02:35 PM 56.7°F13.7°C 48.5°F9.2°C 74% Calm Calm 3.5 mph5.6 kmh 29.85 in1010.8 mb - 0.01 in0.3 mm 0.02 in0.5 mm
02:40 PM 56.7°F13.7°C 48.1°F8.9°C 73% 3.5 mph S5.6 kmh S 4.6 mph7.4 kmh 29.85 in1010.8 mb - 0.00 in0.0 mm 0.02 in0.5 mm
02:45 PM 56.8°F13.8°C 47.1°F8.4°C 70% 3.5 mph SE5.6 kmh SE 6.9 mph11.1 kmh 29.85 in1010.8 mb - 0.00 in0.0 mm 0.02 in0.5 mm
02:50 PM 57.2°F14.0°C 47.5°F8.6°C 70% 3.5 mph S5.6 kmh S 8.1 mph13.0 kmh 29.84 in1010.5 mb - 0.00 in0.0 mm 0.02 in0.5 mm
02:55 PM 57.6°F14.2°C 47.1°F8.4°C 68% 5.8 mph S9.3 kmh S 6.9 mph11.1 kmh 29.84 in1010.5 mb - 0.00 in0.0 mm 0.02 in0.5 mm
03:00 PM 58.6°F14.8°C 47.3°F8.5°C 66% 3.5 mph SSE5.6 kmh SSE 5.8 mph9.3 kmh 29.84 in1010.5 mb - 0.00 in0.0 mm 0.02 in0.5 mm
03:05 PM 58.8°F14.9°C 47.5°F8.6°C 66% 4.6 mph S7.4 kmh S 5.8 mph9.3 kmh 29.84 in1010.5 mb - 0.00 in0.0 mm 0.02 in0.5 mm
03:10 PM 58.8°F14.9°C 47.1°F8.4°C 65% 4.6 mph S7.4 kmh S 6.9 mph11.1 kmh 29.84 in1010.5 mb - 0.00 in0.0 mm 0.02 in0.5 mm
03:15 PM 59.2°F15.1°C 47.5°F8.6°C 65% 3.5 mph S5.6 kmh S 5.8 mph9.3 kmh 29.84 in1010.5 mb - 0.00 in0.0 mm 0.02 in0.5 mm
03:20 PM 59.5°F15.3°C 46.9°F8.3°C 63% 4.6 mph S7.4 kmh S 5.8 mph9.3 kmh 29.84 in1010.5 mb - 0.00 in0.0 mm 0.02 in0.5 mm
03:25 PM 59.7°F15.4°C 46.7°F8.2°C 62% 4.6 mph SSW7.4 kmh SSW 5.8 mph9.3 kmh 29.84 in1010.5 mb - 0.00 in0.0 mm 0.02 in0.5 mm
03:30 PM 59.9°F15.5°C 46.0°F7.8°C 60% 5.8 mph SSW9.3 kmh SSW 5.8 mph9.3 kmh 29.84 in1010.5 mb - 0.00 in0.0 mm 0.02 in0.5 mm
03:35 PM 60.3°F15.7°C 46.4°F8.0°C 60% 5.8 mph S9.3 kmh S 9.2 mph14.8 kmh 29.85 in1010.8 mb - 0.00 in0.0 mm 0.02 in0.5 mm
03:40 PM 60.4°F15.8°C 46.0°F7.8°C 59% 5.8 mph S9.3 kmh S 8.1 mph13.0 kmh 29.85 in1010.8 mb - 0.00 in0.0 mm 0.02 in0.5 mm
03:45 PM 60.4°F15.8°C 45.5°F7.5°C 58% 5.8 mph SSW9.3 kmh SSW 6.9 mph11.1 kmh 29.85 in1010.8 mb - 0.00 in0.0 mm 0.02 in0.5 mm
03:50 PM 60.4°F15.8°C 45.5°F7.5°C 58% 3.5 mph S5.6 kmh S 5.8 mph9.3 kmh 29.84 in1010.5 mb - 0.00 in0.0 mm 0.02 in0.5 mm
03:55 PM 60.6°F15.9°C 45.7°F7.6°C 58% 4.6 mph S7.4 kmh S 6.9 mph11.1 kmh 29.84 in1010.5 mb - 0.00 in0.0 mm 0.02 in0.5 mm
04:00 PM 60.6°F15.9°C 45.7°F7.6°C 58% 5.8 mph SSE9.3 kmh SSE 8.1 mph13.0 kmh 29.84 in1010.5 mb - 0.00 in0.0 mm 0.02 in0.5 mm
04:05 PM 60.6°F15.9°C 45.3°F7.4°C 57% 4.6 mph SSW7.4 kmh SSW 5.8 mph9.3 kmh 29.84 in1010.5 mb - 0.00 in0.0 mm 0.02 in0.5 mm
04:10 PM 60.6°F15.9°C 45.3°F7.4°C 57% 4.6 mph S7.4 kmh S 5.8 mph9.3 kmh 29.84 in1010.5 mb - 0.00 in0.0 mm 0.02 in0.5 mm
04:15 PM 60.8°F16.0°C 45.5°F7.5°C 57% 1.2 mph SSE1.9 kmh SSE -- 29.84 in1010.5 mb - 0.00 in0.0 mm 0.02 in0.5 mm
04:20 PM 61.1°F16.2°C 45.8°F7.7°C 57% Calm Calm 3.5 mph5.6 kmh 29.84 in1010.5 mb - 0.00 in0.0 mm 0.02 in0.5 mm
04:25 PM 61.0°F16.1°C 45.2°F7.3°C 56% 3.5 mph SSW5.6 kmh SSW 4.6 mph7.4 kmh 29.85 in1010.8 mb - 0.00 in0.0 mm 0.02 in0.5 mm
04:30 PM 61.0°F16.1°C 45.2°F7.3°C 56% 3.5 mph S5.6 kmh S 3.5 mph5.6 kmh 29.85 in1010.8 mb - 0.00 in0.0 mm 0.02 in0.5 mm
04:35 PM 61.0°F16.1°C 45.2°F7.3°C 56% 4.6 mph SE7.4 kmh SE 6.9 mph11.1 kmh 29.85 in1010.8 mb - 0.00 in0.0 mm 0.02 in0.5 mm
04:40 PM 60.8°F16.0°C 45.0°F7.2°C 56% 5.8 mph ESE9.3 kmh ESE 8.1 mph13.0 kmh 29.85 in1010.8 mb - 0.00 in0.0 mm 0.02 in0.5 mm
04:45 PM 60.6°F15.9°C 44.8°F7.1°C 56% 5.8 mph SSE9.3 kmh SSE 6.9 mph11.1 kmh 29.85 in1010.8 mb - 0.00 in0.0 mm 0.02 in0.5 mm
04:50 PM 60.4°F15.8°C 44.6°F7.0°C 56% 6.9 mph S11.1 kmh S 8.1 mph13.0 kmh 29.85 in1010.8 mb - 0.00 in0.0 mm 0.02 in0.5 mm
04:55 PM 60.3°F15.7°C 45.0°F7.2°C 57% 5.8 mph SSE9.3 kmh SSE 5.8 mph9.3 kmh 29.85 in1010.8 mb - 0.00 in0.0 mm 0.02 in0.5 mm
05:00 PM 60.1°F15.6°C 44.8°F7.1°C 57% 6.9 mph SSE11.1 kmh SSE 10.4 mph16.7 kmh 29.85 in1010.8 mb - 0.00 in0.0 mm 0.02 in0.5 mm
05:05 PM 59.6°F15.3°C 46.5°F8.1°C 62% 5.8 mph S9.3 kmh S 6.9 mph11.1 kmh 29.85 in1010.8 mb - 0.00 in0.0 mm 0.02 in0.5 mm
05:10 PM 59.3°F15.2°C 46.7°F8.2°C 63% 2.3 mph SE3.7 kmh SE 4.6 mph7.4 kmh 29.86 in1011.2 mb - 0.00 in0.0 mm 0.02 in0.5 mm
05:15 PM 59.2°F15.1°C 46.2°F7.9°C 62% 3.5 mph SSE5.6 kmh SSE 6.9 mph11.1 kmh 29.86 in1011.2 mb - 0.00 in0.0 mm 0.02 in0.5 mm
05:20 PM 59.2°F15.1°C 45.8°F7.7°C 61% 2.3 mph ESE3.7 kmh ESE 5.8 mph9.3 kmh 29.86 in1011.2 mb - 0.00 in0.0 mm 0.02 in0.5 mm
05:25 PM 59.2°F15.1°C 45.3°F7.4°C 60% 4.6 mph SSE7.4 kmh SSE 8.1 mph13.0 kmh 29.86 in1011.2 mb - 0.00 in0.0 mm 0.02 in0.5 mm
05:30 PM 59.2°F15.1°C 45.3°F7.4°C 60% 4.6 mph SSE7.4 kmh SSE 5.8 mph9.3 kmh 29.86 in1011.2 mb - 0.00 in0.0 mm 0.02 in0.5 mm
05:35 PM 59.2°F15.1°C 45.8°F7.7°C 61% 1.2 mph SSE1.9 kmh SSE 2.3 mph3.7 kmh 29.86 in1011.2 mb - 0.00 in0.0 mm 0.02 in0.5 mm
05:40 PM 59.0°F15.0°C 46.0°F7.8°C 62% 4.6 mph ESE7.4 kmh ESE 5.8 mph9.3 kmh 29.86 in1011.2 mb - 0.00 in0.0 mm 0.02 in0.5 mm
05:45 PM 58.6°F14.8°C 47.3°F8.5°C 66% 3.5 mph SE5.6 kmh SE 4.6 mph7.4 kmh 29.86 in1011.2 mb - 0.00 in0.0 mm 0.02 in0.5 mm
05:50 PM 58.1°F14.5°C 47.6°F8.7°C 68% Calm Calm -- 29.86 in1011.2 mb - 0.00 in0.0 mm 0.02 in0.5 mm
05:55 PM 57.7°F14.3°C 47.6°F8.7°C 69% Calm Calm -- 29.86 in1011.2 mb - 0.00 in0.0 mm 0.02 in0.5 mm
06:00 PM 57.6°F14.2°C 48.3°F9.1°C 71% Calm Calm -- 29.87 in1011.5 mb - 0.00 in0.0 mm 0.02 in0.5 mm
06:05 PM 57.4°F14.1°C 48.4°F9.1°C 72% Calm Calm -- 29.87 in1011.5 mb - 0.00 in0.0 mm 0.02 in0.5 mm
06:10 PM 57.0°F13.9°C 48.4°F9.1°C 73% Calm Calm -- 29.86 in1011.2 mb - 0.00 in0.0 mm 0.02 in0.5 mm
06:15 PM 56.8°F13.8°C 48.2°F9.0°C 73% Calm Calm -- 29.86 in1011.2 mb - 0.00 in0.0 mm 0.02 in0.5 mm
06:20 PM 56.7°F13.7°C 49.6°F9.8°C 77% Calm Calm -- 29.86 in1011.2 mb - 0.00 in0.0 mm 0.02 in0.5 mm
06:25 PM 56.1°F13.4°C 49.3°F9.6°C 78% Calm Calm -- 29.87 in1011.5 mb - 0.00 in0.0 mm 0.02 in0.5 mm
06:30 PM 55.9°F13.3°C 49.1°F9.5°C 78% Calm Calm -- 29.87 in1011.5 mb - 0.01 in0.3 mm 0.03 in0.8 mm
06:35 PM 55.7°F13.2°C 48.9°F9.4°C 78% Calm Calm -- 29.88 in1011.9 mb - 0.00 in0.0 mm 0.03 in0.8 mm
06:40 PM 55.2°F12.9°C 48.8°F9.3°C 79% Calm Calm -- 29.88 in1011.9 mb - 0.00 in0.0 mm 0.03 in0.8 mm
06:45 PM 55.0°F12.8°C 48.6°F9.2°C 79% Calm Calm -- 29.88 in1011.9 mb - 0.00 in0.0 mm 0.03 in0.8 mm
06:50 PM 54.9°F12.7°C 48.5°F9.2°C 79% Calm Calm -- 29.88 in1011.9 mb - 0.00 in0.0 mm 0.03 in0.8 mm
06:55 PM 54.7°F12.6°C 48.3°F9.1°C 79% Calm Calm -- 29.88 in1011.9 mb - 0.00 in0.0 mm 0.03 in0.8 mm
07:00 PM 54.5°F12.5°C 48.1°F8.9°C 79% Calm Calm -- 29.88 in1011.9 mb - 0.00 in0.0 mm 0.03 in0.8 mm
07:05 PM 54.3°F12.4°C 47.9°F8.8°C 79% Calm Calm -- 29.88 in1011.9 mb - 0.00 in0.0 mm 0.03 in0.8 mm
07:10 PM 54.2°F12.3°C 47.8°F8.8°C 79% Calm Calm -- 29.89 in1012.2 mb - 0.00 in0.0 mm 0.03 in0.8 mm
07:15 PM 54.1°F12.3°C 48.1°F8.9°C 80% Calm Calm -- 29.89 in1012.2 mb - 0.00 in0.0 mm 0.03 in0.8 mm
07:20 PM 54.0°F12.2°C 48.0°F8.9°C 80% Calm Calm -- 29.89 in1012.2 mb - 0.00 in0.0 mm 0.03 in0.8 mm
07:25 PM 53.8°F12.1°C 47.8°F8.8°C 80% Calm Calm -- 29.90 in1012.5 mb - 0.00 in0.0 mm 0.03 in0.8 mm
07:30 PM 54.0°F12.2°C 48.3°F9.1°C 81% Calm Calm -- 29.90 in1012.5 mb - 0.00 in0.0 mm 0.03 in0.8 mm
07:35 PM 54.3°F12.4°C 48.3°F9.1°C 80% Calm Calm -- 29.90 in1012.5 mb - 0.00 in0.0 mm 0.03 in0.8 mm
07:40 PM 54.9°F12.7°C 48.8°F9.3°C 80% Calm Calm -- 29.90 in1012.5 mb - 0.00 in0.0 mm 0.03 in0.8 mm
07:45 PM 54.9°F12.7°C 48.8°F9.3°C 80% Calm Calm -- 29.90 in1012.5 mb - 0.00 in0.0 mm 0.03 in0.8 mm
07:50 PM 54.8°F12.7°C 48.7°F9.3°C 80% Calm Calm -- 29.91 in1012.9 mb - 0.00 in0.0 mm 0.03 in0.8 mm
07:55 PM 54.9°F12.7°C 48.8°F9.3°C 80% Calm Calm -- 29.91 in1012.9 mb - 0.00 in0.0 mm 0.03 in0.8 mm
08:00 PM 55.2°F12.9°C 48.5°F9.2°C 78% 4.6 mph S7.4 kmh S 5.8 mph9.3 kmh 29.91 in1012.9 mb - 0.00 in0.0 mm 0.03 in0.8 mm
08:05 PM 55.2°F12.9°C 48.1°F8.9°C 77% 3.5 mph SW5.6 kmh SW 2.3 mph3.7 kmh 29.91 in1012.9 mb - 0.00 in0.0 mm 0.03 in0.8 mm
08:10 PM 55.2°F12.9°C 48.1°F8.9°C 77% Calm Calm -- 29.92 in1013.2 mb - 0.00 in0.0 mm 0.03 in0.8 mm
08:15 PM 55.2°F12.9°C 48.1°F8.9°C 77% Calm Calm -- 29.92 in1013.2 mb - 0.00 in0.0 mm 0.03 in0.8 mm
08:20 PM 55.0°F12.8°C 47.9°F8.8°C 77% Calm Calm -- 29.92 in1013.2 mb - 0.00 in0.0 mm 0.03 in0.8 mm
08:25 PM 55.0°F12.8°C 47.9°F8.8°C 77% Calm Calm -- 29.92 in1013.2 mb - 0.00 in0.0 mm 0.03 in0.8 mm
08:30 PM 54.9°F12.7°C 47.8°F8.8°C 77% Calm Calm -- 29.92 in1013.2 mb - 0.00 in0.0 mm 0.03 in0.8 mm
08:35 PM 54.7°F12.6°C 47.6°F8.7°C 77% Calm Calm -- 29.92 in1013.2 mb - 0.00 in0.0 mm 0.03 in0.8 mm
08:40 PM 54.7°F12.6°C 47.6°F8.7°C 77% Calm Calm -- 29.92 in1013.2 mb - 0.00 in0.0 mm 0.03 in0.8 mm
08:45 PM 54.5°F12.5°C 47.4°F8.6°C 77% Calm Calm -- 29.92 in1013.2 mb - 0.00 in0.0 mm 0.03 in0.8 mm
08:50 PM 54.5°F12.5°C 47.4°F8.6°C 77% Calm Calm -- 29.93 in1013.5 mb - 0.00 in0.0 mm 0.03 in0.8 mm
08:55 PM 54.5°F12.5°C 47.4°F8.6°C 77% Calm Calm -- 29.93 in1013.5 mb - 0.00 in0.0 mm 0.03 in0.8 mm
09:00 PM 54.3°F12.4°C 47.2°F8.4°C 77% Calm Calm -- 29.93 in1013.5 mb - 0.00 in0.0 mm 0.03 in0.8 mm
09:05 PM 54.3°F12.4°C 47.6°F8.7°C 78% Calm Calm -- 29.93 in1013.5 mb - 0.00 in0.0 mm 0.03 in0.8 mm
09:10 PM 54.7°F12.6°C 48.0°F8.9°C 78% Calm Calm -- 29.93 in1013.5 mb - 0.00 in0.0 mm 0.03 in0.8 mm
09:15 PM 54.7°F12.6°C 48.0°F8.9°C 78% Calm Calm -- 29.93 in1013.5 mb - 0.00 in0.0 mm 0.03 in0.8 mm
09:20 PM 54.6°F12.6°C 47.9°F8.8°C 78% Calm Calm -- 29.93 in1013.5 mb - 0.00 in0.0 mm 0.03 in0.8 mm
09:25 PM 54.3°F12.4°C 47.9°F8.8°C 79% Calm Calm -- 29.94 in1013.9 mb - 0.00 in0.0 mm 0.03 in0.8 mm
09:30 PM 54.3°F12.4°C 47.9°F8.8°C 79% Calm Calm -- 29.94 in1013.9 mb - 0.00 in0.0 mm 0.03 in0.8 mm
09:35 PM 54.1°F12.3°C 47.7°F8.7°C 79% Calm Calm -- 29.95 in1014.2 mb - 0.00 in0.0 mm 0.03 in0.8 mm
09:40 PM 54.0°F12.2°C 47.6°F8.7°C 79% Calm Calm -- 29.95 in1014.2 mb - 0.00 in0.0 mm 0.03 in0.8 mm
09:45 PM 53.8°F12.1°C 47.4°F8.6°C 79% Calm Calm -- 29.95 in1014.2 mb - 0.00 in0.0 mm 0.03 in0.8 mm
09:50 PM 53.7°F12.1°C 47.3°F8.5°C 79% Calm Calm -- 29.95 in1014.2 mb - 0.00 in0.0 mm 0.03 in0.8 mm
09:55 PM 53.6°F12.0°C 46.9°F8.3°C 78% Calm Calm -- 29.95 in1014.2 mb - 0.00 in0.0 mm 0.03 in0.8 mm
10:00 PM 53.6°F12.0°C 46.6°F8.1°C 77% Calm Calm -- 29.95 in1014.2 mb - 0.00 in0.0 mm 0.03 in0.8 mm
10:05 PM 53.6°F12.0°C 46.6°F8.1°C 77% Calm Calm -- 29.95 in1014.2 mb - 0.00 in0.0 mm 0.03 in0.8 mm
10:10 PM 53.7°F12.1°C 46.7°F8.2°C 77% Calm Calm -- 29.95 in1014.2 mb - 0.00 in0.0 mm 0.03 in0.8 mm
10:15 PM 54.0°F12.2°C 46.3°F7.9°C 75% Calm Calm -- 29.95 in1014.2 mb - 0.00 in0.0 mm 0.03 in0.8 mm
10:20 PM 54.0°F12.2°C 46.6°F8.1°C 76% Calm Calm -- 29.95 in1014.2 mb - 0.00 in0.0 mm 0.03 in0.8 mm
10:25 PM 53.8°F12.1°C 46.4°F8.0°C 76% Calm Calm -- 29.96 in1014.6 mb - 0.00 in0.0 mm 0.03 in0.8 mm
10:30 PM 53.8°F12.1°C 46.4°F8.0°C 76% Calm Calm -- 29.96 in1014.6 mb - 0.00 in0.0 mm 0.03 in0.8 mm
10:35 PM 53.8°F12.1°C 46.4°F8.0°C 76% Calm Calm -- 29.96 in1014.6 mb - 0.00 in0.0 mm 0.03 in0.8 mm
10:40 PM 53.8°F12.1°C 46.4°F8.0°C 76% Calm Calm -- 29.96 in1014.6 mb - 0.00 in0.0 mm 0.03 in0.8 mm
10:45 PM 53.6°F12.0°C 46.2°F7.9°C 76% Calm Calm -- 29.96 in1014.6 mb - 0.00 in0.0 mm 0.03 in0.8 mm
10:50 PM 53.6°F12.0°C 46.2°F7.9°C 76% Calm Calm -- 29.96 in1014.6 mb - 0.00 in0.0 mm 0.03 in0.8 mm
10:55 PM 53.6°F12.0°C 46.2°F7.9°C 76% Calm Calm -- 29.96 in1014.6 mb - 0.00 in0.0 mm 0.03 in0.8 mm
11:00 PM 53.6°F12.0°C 46.2°F7.9°C 76% Calm Calm -- 29.96 in1014.6 mb - 0.00 in0.0 mm 0.03 in0.8 mm
11:05 PM 53.6°F12.0°C 46.2°F7.9°C 76% Calm Calm -- 29.96 in1014.6 mb - 0.00 in0.0 mm 0.03 in0.8 mm
11:10 PM 53.6°F12.0°C 46.2°F7.9°C 76% Calm Calm -- 29.96 in1014.6 mb - 0.00 in0.0 mm 0.03 in0.8 mm
11:15 PM 53.6°F12.0°C 46.2°F7.9°C 76% Calm Calm -- 29.96 in1014.6 mb - 0.00 in0.0 mm 0.03 in0.8 mm
11:20 PM 53.4°F11.9°C 46.0°F7.8°C 76% Calm Calm -- 29.96 in1014.6 mb - 0.00 in0.0 mm 0.03 in0.8 mm
11:25 PM 53.4°F11.9°C 46.0°F7.8°C 76% Calm Calm -- 29.97 in1014.9 mb - 0.00 in0.0 mm 0.03 in0.8 mm
11:30 PM 53.4°F11.9°C 46.0°F7.8°C 76% Calm Calm -- 29.97 in1014.9 mb - 0.00 in0.0 mm 0.03 in0.8 mm
11:35 PM 53.4°F11.9°C 45.7°F7.6°C 75% Calm Calm -- 29.96 in1014.6 mb - 0.00 in0.0 mm 0.03 in0.8 mm
11:40 PM 53.4°F11.9°C 45.7°F7.6°C 75% Calm Calm -- 29.96 in1014.6 mb - 0.00 in0.0 mm 0.03 in0.8 mm
11:45 PM 53.4°F11.9°C 45.7°F7.6°C 75% Calm Calm -- 29.97 in1014.9 mb - 0.00 in0.0 mm 0.03 in0.8 mm
11:50 PM 53.4°F11.9°C 46.0°F7.8°C 76% Calm Calm -- 29.97 in1014.9 mb - 0.00 in0.0 mm 0.03 in0.8 mm
11:55 PM 53.4°F11.9°C 46.4°F8.0°C 77% Calm Calm -- 29.97 in1014.9 mb - 0.00 in0.0 mm 0.03 in0.8 mm